Stone Mountain, GA (30088)

5:20 AM EST on December 29, 2014 (GMT -0500)
Oak Creek | Change Station
CLOSE
Current Station
Personal Weather Station
Location: Avondale Estates, GA
Elevation: 975 ft
Nearby Weather Stations

Elev 975 ft 33.78 °N, 84.25 °W | Updated 20 seconds ago

Rain
Rain
53.3 °F
Feels Like 53.3 °F
N
0.0
Wind Variable Wind from WSW
Gusts 0.0 mph

Today
High -- | Low -- °F
--% Chance of Precip.
Yesterday
High -- | Low -- °F
Precip. -- in
7:40 AM 5:36 PM
First Quarter, 57% visible
Pressure 30.03 in
Visibility 3.0 miles
Clouds Mostly Cloudy 8000 ft
Overcast 9500 ft
Dew Point 52 °F
Humidity 96%
Rainfall 0.09 in
Snow Depth Not available.
UV 0 out of 12
Pollen .30 out of 12
Air Quality Not available.
Flu Activity Not available.
SPECI KPDK 291013Z AUTO 00000KT 3SM -RA BR BKN080 OVC095 12/11 A3003 RMK AO2 P0001

More Conditions Fewer Conditions

Pressure 30.03 in
Visibility 3.0 miles
Clouds Mostly Cloudy 8000 ft
Overcast 9500 ft
Dew Point 52 °F
Humidity 96%
Rainfall 0.09 in
Snow Depth Not available.
UV 0 out of 12
Pollen .30 out of 12
Air Quality Not available.
Flu Activity Not available.
SPECI KPDK 291013Z AUTO 00000KT 3SM -RA BR BKN080 OVC095 12/11 A3003 RMK AO2 P0001

More Conditions Fewer Conditions

10-Day Weather Forecast

Almanac

Astronomy

Dec. 29, 2014 Rise Set
Actual Time
Civil Twilight
Nautical Twilight
Astronomical Twilight
Moon
Length of Visible Light
Length of Day
Tomorrow will be .
, % of the Moon is Illuminated

Today's Extremes

State Highs State Lows

Community

WunderPhotos

Upload Photos

1,781,563 photos uploaded!

WunderBlogs® & News

Nearby

Air Quality

  Air Quality AQ Index Pollutant
Not available.

Snow Depth

Station Depth Elevation

Earthquake Activity

City Distance Mag. Time & Date
Minimum magnitude displayed is 2.5.

Coastal Water Temperatures

Place Temperature

Nearby Weather Stations